Manyberries, Canada
Current Conditions -  °F | °C
As of 11:00 PM on Wednesday 22 Oct 2014 (Local Time) from CYXH Reporting Station
Clear Clear  
Wind Chill: 50°   Ceiling: Unl
Heat Index: 50°   Visibility: 9mi
Dew Point: 37°   Wind: 13mph
Humidity: 62%   Direction: 200°SSW
Pressure: 29.7"   Gusts: 18mph
Location:  49.4°N, 110.7°W
Report Text: CYXH 230500Z AUTO 20011G16KT 9SM CLR 10/03 A2970 RMK SLP066 DENSITY ALT 2500FT
Loading
Personal Weather Stations






























Interactive Weather Map New forecast layout! Learn more

10-Day Weather Forecast

Advertisements
Track Severe Weather on mobile